Time;durP1;ratioP1;P1;durP2;ratioP2;P2;SDS_P1;SDS_P2;PMS_P1;PMS_P2;Temp;Humidity;BMP_temperature;BMP_pressure;BME280_temperature;BME280_humidity;BME280_pressure;Samples;Min_cycle;Max_cycle;Signal;HPM_P1;HPM_P2
2022/08/09 00:01:47;;;;;;;17.57;9.33;;;;;;;;;;5048319;28;20094;-65
2022/08/09 00:04:13;;;;;;;19.30;10.80;;;;;;;;;;5047483;28;20470;-64
2022/08/09 00:06:39;;;;;;;19.47;10.40;;;;;;;;;;5048243;28;20045;-64
2022/08/09 00:09:05;;;;;;;18.37;10.30;;;;;;;;;;5047558;28;20061;-64
2022/08/09 00:11:31;;;;;;;18.77;10.57;;;;;;;;;;5048247;28;20463;-64
2022/08/09 00:13:57;;;;;;;19.57;10.70;;;;;;;;;;5047410;28;20045;-64
2022/08/09 00:16:23;;;;;;;18.43;9.63;;;;;;;;;;5047661;28;20106;-64
2022/08/09 00:18:49;;;;;;;17.00;9.93;;;;;;;;;;5047949;28;20420;-64
2022/08/09 00:21:15;;;;;;;19.57;10.30;;;;;;;;;;5046733;28;20045;-64
2022/08/09 00:23:41;;;;;;;12.87;8.00;;;;;;;;;;5048215;28;20047;-64
2022/08/09 00:26:07;;;;;;;21.30;10.30;;;;;;;;;;5048390;28;20045;-64
2022/08/09 00:28:34;;;;;;;14.90;9.63;;;;;;;;;;5047337;28;20091;-64
2022/08/09 00:31:01;;;;;;;11.97;7.73;;;;;;;;;;5047794;28;20051;-64
2022/08/09 00:33:27;;;;;;;12.40;7.90;;;;;;;;;;5047375;28;20049;-64
2022/08/09 00:35:54;;;;;;;15.47;8.60;;;;;;;;;;5047953;28;20049;-64
2022/08/09 00:38:21;;;;;;;13.93;8.37;;;;;;;;;;5047091;28;20051;-64
2022/08/09 00:40:47;;;;;;;14.00;6.73;;;;;;;;;;5047924;28;20048;-64
2022/08/09 00:43:13;;;;;;;17.50;5.93;;;;;;;;;;5047194;28;20120;-64
2022/08/09 00:45:39;;;;;;;12.23;5.77;;;;;;;;;;5047827;28;20246;-64
2022/08/09 00:48:05;;;;;;;11.03;6.17;;;;;;;;;;5047558;28;20049;-64
2022/08/09 00:50:31;;;;;;;11.70;6.50;;;;;;;;;;5047651;28;20044;-64
2022/08/09 00:52:58;;;;;;;16.57;6.90;;;;;;;;;;5046967;28;20037;-64
2022/08/09 00:55:24;;;;;;;14.33;7.50;;;;;;;;;;5045787;28;20045;-64
2022/08/09 00:57:50;;;;;;;14.50;7.80;;;;;;;;;;5051327;28;20511;-64
2022/08/09 01:00:16;;;;;;;17.77;10.20;;;;;;;;;;5050894;28;20106;-64
2022/08/09 01:02:47;;;;;;;13.77;7.40;;;;;;;;;;5051440;28;20048;-64
2022/08/09 01:05:26;;;;;;;16.07;9.50;;;;;;;;;;5050917;28;20049;-64
2022/08/09 01:07:55;;;;;;;17.50;9.27;;;;;;;;;;5051500;28;20052;-64
2022/08/09 01:10:27;;;;;;;18.87;9.73;;;;;;;;;;5051250;28;20426;-64
2022/08/09 01:13:07;;;;;;;15.40;8.50;;;;;;;;;;5050601;28;20650;-64
2022/08/09 01:15:36;;;;;;;36.57;9.73;;;;;;;;;;5051295;28;20060;-64
2022/08/09 01:18:05;;;;;;;13.23;7.10;;;;;;;;;;5042426;28;20041;-64
2022/08/09 01:20:40;;;;;;;10.33;6.77;;;;;;;;;;5051379;28;20099;-64
2022/08/09 01:23:21;;;;;;;13.63;6.50;;;;;;;;;;5050910;28;20396;-64
2022/08/09 01:26:02;;;;;;;20.80;6.43;;;;;;;;;;5050874;28;20053;-64
2022/08/09 01:28:28;;;;;;;11.67;5.57;;;;;;;;;;5050832;28;20048;-64
2022/08/09 01:30:56;;;;;;;11.63;6.23;;;;;;;;;;5050205;28;20045;-64
2022/08/09 01:33:25;;;;;;;12.43;7.00;;;;;;;;;;5050671;28;20047;-64
2022/08/09 01:36:01;;;;;;;11.57;6.47;;;;;;;;;;5050480;28;20052;-64
2022/08/09 01:38:29;;;;;;;11.17;6.77;;;;;;;;;;5050817;28;20049;-64
2022/08/09 01:41:07;;;;;;;17.77;7.63;;;;;;;;;;5050019;28;20605;-64
2022/08/09 01:43:34;;;;;;;16.43;7.83;;;;;;;;;;5049991;28;20044;-64
2022/08/09 01:46:01;;;;;;;17.03;7.90;;;;;;;;;;5049334;28;20037;-64
2022/08/09 01:48:27;;;;;;;18.23;8.20;;;;;;;;;;5050496;28;20041;-64
2022/08/09 01:50:54;;;;;;;21.43;9.20;;;;;;;;;;5049905;28;20036;-64
2022/08/09 01:53:24;;;;;;;19.83;7.63;;;;;;;;;;5050070;28;20055;-64
2022/08/09 01:55:51;;;;;;;19.70;9.70;;;;;;;;;;5049746;28;20418;-64
2022/08/09 01:58:17;;;;;;;14.43;8.17;;;;;;;;;;5049762;28;20528;-64
2022/08/09 02:00:43;;;;;;;24.53;9.87;;;;;;;;;;5050462;28;20449;-64
2022/08/09 02:03:10;;;;;;;15.80;8.77;;;;;;;;;;5049766;28;20049;-64
2022/08/09 02:05:36;;;;;;;40.57;13.13;;;;;;;;;;5049058;28;20037;-64
2022/08/09 02:08:05;;;;;;;20.17;8.93;;;;;;;;;;5049188;28;20037;-65
2022/08/09 02:10:39;;;;;;;22.87;10.17;;;;;;;;;;5049688;28;20053;-64
2022/08/09 02:13:07;;;;;;;21.20;10.00;;;;;;;;;;5049824;28;20061;-64
2022/08/09 02:15:36;;;;;;;22.20;10.50;;;;;;;;;;5050134;28;20094;-64
2022/08/09 02:18:04;;;;;;;25.60;11.17;;;;;;;;;;5049187;28;20083;-65
2022/08/09 02:20:31;;;;;;;26.97;10.80;;;;;;;;;;5049264;28;20494;-65
2022/08/09 02:23:16;;;;;;;58.73;10.63;;;;;;;;;;5049622;28;20053;-65
2022/08/09 02:25:44;;;;;;;135.17;11.23;;;;;;;;;;5042988;28;20072;-65
2022/08/09 02:28:13;;;;;;;31.03;6.50;;;;;;;;;;5049236;28;20048;-65
2022/08/09 02:30:42;;;;;;;35.47;6.17;;;;;;;;;;5049568;28;20044;-65
2022/08/09 02:33:14;;;;;;;20.47;7.47;;;;;;;;;;5048578;28;20051;-62
2022/08/09 02:35:40;;;;;;;18.87;9.23;;;;;;;;;;5049559;28;20522;-64
2022/08/09 02:38:09;;;;;;;18.77;10.47;;;;;;;;;;5049091;28;20045;-65
2022/08/09 02:40:36;;;;;;;21.87;11.53;;;;;;;;;;5048920;28;20498;-65
2022/08/09 02:43:03;;;;;;;25.70;11.53;;;;;;;;;;5049033;28;20057;-65
2022/08/09 02:45:32;;;;;;;21.93;10.30;;;;;;;;;;5049239;28;20186;-65
2022/08/09 02:48:00;;;;;;;11.37;6.00;;;;;;;;;;5048424;28;20049;-65
2022/08/09 02:50:28;;;;;;;8.80;4.50;;;;;;;;;;5049087;28;20045;-65
2022/08/09 02:52:56;;;;;;;7.67;4.20;;;;;;;;;;5048742;28;20045;-65
2022/08/09 02:55:24;;;;;;;8.57;3.77;;;;;;;;;;5048682;28;20411;-65
2022/08/09 02:57:51;;;;;;;7.87;3.80;;;;;;;;;;5048882;28;20409;-65
2022/08/09 03:00:17;;;;;;;12.53;5.33;;;;;;;;;;5048461;28;20434;-65
2022/08/09 03:02:47;;;;;;;11.27;4.03;;;;;;;;;;5048729;28;20488;-65
2022/08/09 03:05:13;;;;;;;98.67;9.53;;;;;;;;;;5045721;28;20059;-65
2022/08/09 03:07:40;;;;;;;84.53;6.93;;;;;;;;;;5048742;28;20040;-65
2022/08/09 03:10:07;;;;;;;180.60;9.73;;;;;;;;;;5048850;28;20136;-65
2022/08/09 03:12:35;;;;;;;65.63;6.90;;;;;;;;;;5048735;28;20099;-65
2022/08/09 03:15:01;;;;;;;176.70;10.77;;;;;;;;;;5047806;28;20051;-65
2022/08/09 03:17:28;;;;;;;14.27;5.63;;;;;;;;;;5047895;28;20225;-65
2022/08/09 03:19:58;;;;;;;49.60;6.40;;;;;;;;;;5048826;28;20098;-65
2022/08/09 03:22:25;;;;;;;27.80;7.53;;;;;;;;;;5048255;28;20049;-65
2022/08/09 03:24:51;;;;;;;33.40;9.03;;;;;;;;;;5048397;28;20063;-65
2022/08/09 03:27:17;;;;;;;120.47;12.93;;;;;;;;;;5048425;28;20056;-65
2022/08/09 03:29:43;;;;;;;161.43;12.90;;;;;;;;;;5048396;28;20052;-65
2022/08/09 03:32:10;;;;;;;39.80;7.83;;;;;;;;;;5048429;28;20049;-65
2022/08/09 03:34:36;;;;;;;200.33;12.10;;;;;;;;;;5047331;28;20053;-65
2022/08/09 03:37:02;;;;;;;92.33;6.97;;;;;;;;;;5048357;28;20091;-65
2022/08/09 03:39:28;;;;;;;53.53;6.37;;;;;;;;;;5048363;28;20049;-65
2022/08/09 03:41:54;;;;;;;19.70;5.20;;;;;;;;;;5048199;28;20423;-65
2022/08/09 03:44:21;;;;;;;17.10;6.20;;;;;;;;;;5047952;28;20053;-65
2022/08/09 03:46:48;;;;;;;126.67;11.90;;;;;;;;;;5048121;28;20076;-65
2022/08/09 03:49:14;;;;;;;131.50;10.93;;;;;;;;;;5047692;28;20134;-65
2022/08/09 03:51:42;;;;;;;97.30;11.00;;;;;;;;;;5047864;28;20525;-65
2022/08/09 03:54:13;;;;;;;43.37;7.87;;;;;;;;;;5047904;28;20411;-65
2022/08/09 03:56:39;;;;;;;31.30;7.77;;;;;;;;;;5047757;28;20499;-65
2022/08/09 03:59:06;;;;;;;110.47;10.67;;;;;;;;;;5047757;28;20418;-65
2022/08/09 04:01:32;;;;;;;113.50;7.93;;;;;;;;;;5047675;28;20095;-65
2022/08/09 04:03:59;;;;;;;39.70;5.90;;;;;;;;;;5048310;28;20040;-65
2022/08/09 04:06:26;;;;;;;12.23;3.63;;;;;;;;;;5048114;28;20538;-65
2022/08/09 04:08:52;;;;;;;15.10;4.60;;;;;;;;;;5048025;28;20697;-65
2022/08/09 04:11:18;;;;;;;25.60;6.80;;;;;;;;;;5047848;28;20072;-65
2022/08/09 04:13:44;;;;;;;17.23;5.57;;;;;;;;;;5048047;28;20334;-65
2022/08/09 04:16:10;;;;;;;120.97;10.33;;;;;;;;;;5046364;28;20049;-65
2022/08/09 04:18:36;;;;;;;108.30;12.33;;;;;;;;;;5047653;28;20087;-65
2022/08/09 04:21:02;;;;;;;33.33;8.53;;;;;;;;;;5048006;28;20136;-65
2022/08/09 04:23:28;;;;;;;33.93;9.23;;;;;;;;;;5047301;28;20048;-65
2022/08/09 04:25:55;;;;;;;22.57;8.30;;;;;;;;;;5047445;28;20099;-65
2022/08/09 04:28:22;;;;;;;45.23;9.57;;;;;;;;;;5047442;28;20099;-65
2022/08/09 04:30:48;;;;;;;101.40;11.50;;;;;;;;;;5050774;28;20102;-65
2022/08/09 04:33:14;;;;;;;64.67;9.17;;;;;;;;;;5051103;28;20052;-65
2022/08/09 04:35:41;;;;;;;68.23;11.17;;;;;;;;;;5051455;28;20041;-65
2022/08/09 04:38:07;;;;;;;49.80;9.40;;;;;;;;;;5049796;28;20037;-65
2022/08/09 04:40:48;;;;;;;49.73;9.77;;;;;;;;;;5051628;28;20060;-65
2022/08/09 04:43:15;;;;;;;74.07;11.00;;;;;;;;;;5050558;28;20053;-65
2022/08/09 04:45:41;;;;;;;44.77;9.60;;;;;;;;;;5050758;28;20092;-65
2022/08/09 04:48:07;;;;;;;22.27;8.27;;;;;;;;;;5051287;28;20044;-65
2022/08/09 04:50:34;;;;;;;24.97;9.87;;;;;;;;;;5051487;28;20855;-65
2022/08/09 04:53:00;;;;;;;22.67;8.63;;;;;;;;;;5049929;28;20049;-65
2022/08/09 04:55:26;;;;;;;21.90;8.93;;;;;;;;;;5051218;28;20049;-65
2022/08/09 04:57:52;;;;;;;24.87;10.37;;;;;;;;;;5050844;28;20487;-65
2022/08/09 05:00:18;;;;;;;21.33;8.27;;;;;;;;;;5051146;28;20548;-65
2022/08/09 05:02:45;;;;;;;25.23;10.50;;;;;;;;;;5050866;28;20047;-65
2022/08/09 05:05:11;;;;;;;24.40;10.40;;;;;;;;;;5049389;28;20048;-65
2022/08/09 05:07:37;;;;;;;22.17;9.67;;;;;;;;;;5050379;28;20045;-65
2022/08/09 05:10:03;;;;;;;27.20;10.00;;;;;;;;;;5050606;28;20045;-66
2022/08/09 05:12:30;;;;;;;28.40;10.33;;;;;;;;;;5050490;28;20045;-65
2022/08/09 05:14:56;;;;;;;22.37;11.03;;;;;;;;;;5050792;28;20453;-65
2022/08/09 05:17:22;;;;;;;27.47;12.23;;;;;;;;;;5050194;28;20052;-65
2022/08/09 05:19:48;;;;;;;28.43;11.83;;;;;;;;;;5050892;28;20091;-67
2022/08/09 05:22:15;;;;;;;38.93;14.57;;;;;;;;;;5050621;28;20049;-65
2022/08/09 05:24:41;;;;;;;32.47;13.93;;;;;;;;;;5049953;28;20356;-65
2022/08/09 05:27:07;;;;;;;41.10;15.80;;;;;;;;;;5050369;28;20045;-65
2022/08/09 05:29:33;;;;;;;37.37;15.27;;;;;;;;;;5050576;28;20040;-66
2022/08/09 05:32:00;;;;;;;37.13;14.27;;;;;;;;;;5050021;28;20040;-66
2022/08/09 05:34:27;;;;;;;35.93;14.73;;;;;;;;;;5050200;28;20041;-65
2022/08/09 05:36:55;;;;;;;35.03;14.47;;;;;;;;;;5050371;28;20033;-65
2022/08/09 05:39:21;;;;;;;38.00;15.57;;;;;;;;;;5049222;28;20090;-65
2022/08/09 05:41:47;;;;;;;33.40;14.97;;;;;;;;;;5050375;28;20048;-65
2022/08/09 05:44:13;;;;;;;39.33;16.10;;;;;;;;;;5050059;28;20049;-65
2022/08/09 05:46:39;;;;;;;28.13;13.70;;;;;;;;;;5049694;28;20045;-65
2022/08/09 05:49:05;;;;;;;34.00;14.67;;;;;;;;;;5048761;28;20095;-66
2022/08/09 05:51:31;;;;;;;34.63;14.73;;;;;;;;;;5049855;28;20056;-65
2022/08/09 05:53:57;;;;;;;37.10;14.63;;;;;;;;;;5049361;28;20049;-65
2022/08/09 05:56:23;;;;;;;24.10;12.90;;;;;;;;;;5049773;28;20045;-65
2022/08/09 05:58:50;;;;;;;32.03;13.90;;;;;;;;;;5049735;28;20036;-66
2022/08/09 06:01:16;;;;;;;33.17;13.63;;;;;;;;;;5049503;28;20041;-66
2022/08/09 06:03:42;;;;;;;22.47;12.00;;;;;;;;;;5049864;28;20037;-66
2022/08/09 06:06:08;;;;;;;24.13;13.37;;;;;;;;;;5049738;28;20052;-66
2022/08/09 06:08:34;;;;;;;26.77;11.60;;;;;;;;;;5049547;28;20049;-66
2022/08/09 06:11:00;;;;;;;24.07;12.47;;;;;;;;;;5049929;28;20045;-65
2022/08/09 06:13:26;;;;;;;26.77;12.47;;;;;;;;;;5049712;28;20461;-66
2022/08/09 06:15:53;;;;;;;25.27;12.37;;;;;;;;;;5048606;28;20503;-66
2022/08/09 06:18:21;;;;;;;34.00;14.27;;;;;;;;;;5049630;28;20053;-66
2022/08/09 06:20:47;;;;;;;28.97;13.60;;;;;;;;;;5049510;28;20045;-66
2022/08/09 06:23:13;;;;;;;26.57;12.93;;;;;;;;;;5049186;28;20045;-66
2022/08/09 06:25:44;;;;;;;24.57;12.80;;;;;;;;;;5049224;28;20453;-66
2022/08/09 06:28:10;;;;;;;22.47;11.17;;;;;;;;;;5049314;28;20045;-66
2022/08/09 06:30:37;;;;;;;20.60;11.57;;;;;;;;;;5049593;28;20045;-66
2022/08/09 06:33:03;;;;;;;21.33;11.03;;;;;;;;;;5049219;28;20051;-66
2022/08/09 06:35:29;;;;;;;19.33;10.67;;;;;;;;;;5048913;28;20091;-66
2022/08/09 06:37:56;;;;;;;21.10;10.57;;;;;;;;;;5049138;28;20048;-66
2022/08/09 06:40:22;;;;;;;13.30;9.57;;;;;;;;;;5047862;28;20513;-66
2022/08/09 06:42:48;;;;;;;19.70;10.33;;;;;;;;;;5048846;28;20387;-66
2022/08/09 06:45:14;;;;;;;20.47;10.03;;;;;;;;;;5048918;28;20122;-66
2022/08/09 06:47:40;;;;;;;16.63;10.17;;;;;;;;;;5048644;28;20045;-66
2022/08/09 06:50:07;;;;;;;35.40;12.77;;;;;;;;;;5048515;28;20055;-66
2022/08/09 06:52:33;;;;;;;22.63;10.13;;;;;;;;;;5048023;28;20549;-66
2022/08/09 06:54:59;;;;;;;18.90;9.53;;;;;;;;;;5048522;28;20045;-65
2022/08/09 06:57:25;;;;;;;17.60;9.27;;;;;;;;;;5048255;28;20119;-65
2022/08/09 06:59:52;;;;;;;16.77;8.87;;;;;;;;;;5049002;28;20099;-65
2022/08/09 07:02:18;;;;;;;12.70;8.20;;;;;;;;;;5048751;28;20056;-65
2022/08/09 07:04:47;;;;;;;11.20;7.77;;;;;;;;;;5048295;28;20119;-66
2022/08/09 07:07:14;;;;;;;11.47;7.17;;;;;;;;;;5047197;28;20515;-66
2022/08/09 07:09:40;;;;;;;14.37;7.37;;;;;;;;;;5046709;28;20096;-66
2022/08/09 07:12:07;;;;;;;11.47;7.10;;;;;;;;;;5048860;28;20100;-66
2022/08/09 07:14:33;;;;;;;10.97;6.30;;;;;;;;;;5047624;28;20478;-66
2022/08/09 07:16:59;;;;;;;13.10;6.17;;;;;;;;;;5048710;28;20060;-66
2022/08/09 07:19:25;;;;;;;13.03;6.33;;;;;;;;;;5048567;28;20053;-66
2022/08/09 07:21:51;;;;;;;10.67;5.77;;;;;;;;;;5040221;28;20518;-66
2022/08/09 07:24:17;;;;;;;11.30;6.33;;;;;;;;;;5047608;28;20044;-66
2022/08/09 07:26:43;;;;;;;10.07;5.27;;;;;;;;;;5048576;28;20049;-66
2022/08/09 07:29:09;;;;;;;7.97;4.90;;;;;;;;;;5047923;28;20155;-66
2022/08/09 07:31:36;;;;;;;9.63;4.53;;;;;;;;;;5046957;28;20135;-66
2022/08/09 07:34:02;;;;;;;11.30;5.30;;;;;;;;;;5046868;28;20064;-66
2022/08/09 07:36:29;;;;;;;11.93;5.17;;;;;;;;;;5048635;28;20053;-66
2022/08/09 07:38:58;;;;;;;8.80;4.63;;;;;;;;;;5048330;28;20119;-66
2022/08/09 07:41:24;;;;;;;9.93;4.70;;;;;;;;;;5048239;28;20099;-65
2022/08/09 07:43:50;;;;;;;7.20;3.90;;;;;;;;;;5047316;28;20051;-66
2022/08/09 07:46:16;;;;;;;11.27;4.70;;;;;;;;;;5046776;28;20041;-66
2022/08/09 07:48:42;;;;;;;10.27;3.80;;;;;;;;;;5047824;28;20060;-66
2022/08/09 07:51:08;;;;;;;7.23;3.10;;;;;;;;;;5048218;28;20086;-65
2022/08/09 07:53:34;;;;;;;5.30;2.90;;;;;;;;;;5047659;28;20041;-66
2022/08/09 07:56:00;;;;;;;9.13;3.10;;;;;;;;;;5046246;28;20045;-66
2022/08/09 07:58:26;;;;;;;7.73;2.27;;;;;;;;;;5047812;28;20453;-66
2022/08/09 08:00:52;;;;;;;4.13;2.47;;;;;;;;;;5047802;28;20071;-66
2022/08/09 08:03:18;;;;;;;4.47;2.40;;;;;;;;;;5046736;28;20489;-66
2022/08/09 08:05:44;;;;;;;2.50;1.80;;;;;;;;;;5051891;28;20041;-66
2022/08/09 08:08:10;;;;;;;2.97;1.80;;;;;;;;;;5051086;28;20580;-66
2022/08/09 08:10:36;;;;;;;2.73;1.70;;;;;;;;;;5052464;28;20060;-66
2022/08/09 08:13:03;;;;;;;4.47;1.80;;;;;;;;;;5051540;28;20072;-66
2022/08/09 08:15:29;;;;;;;2.33;1.20;;;;;;;;;;5050967;28;20150;-66
2022/08/09 08:17:55;;;;;;;3.93;1.30;;;;;;;;;;5050855;28;20084;-66
2022/08/09 08:20:21;;;;;;;2.77;1.07;;;;;;;;;;5050579;28;20052;-66
2022/08/09 08:22:48;;;;;;;3.93;1.03;;;;;;;;;;5051610;28;20044;-66
2022/08/09 08:25:14;;;;;;;4.27;1.10;;;;;;;;;;5050045;28;20156;-66
2022/08/09 08:27:41;;;;;;;2.77;1.33;;;;;;;;;;5051590;28;20037;-66
2022/08/09 08:30:07;;;;;;;3.90;0.80;;;;;;;;;;5051097;28;20052;-66
2022/08/09 08:32:33;;;;;;;3.53;0.90;;;;;;;;;;5051764;28;20037;-66
2022/08/09 08:35:00;;;;;;;2.50;0.80;;;;;;;;;;5051191;28;20051;-66
2022/08/09 08:37:26;;;;;;;4.43;1.20;;;;;;;;;;5051357;28;20072;-66
2022/08/09 08:39:53;;;;;;;3.03;1.00;;;;;;;;;;5050859;28;20041;-66
2022/08/09 08:42:20;;;;;;;4.20;0.90;;;;;;;;;;5051499;28;20041;-64
2022/08/09 08:44:48;;;;;;;1.63;0.90;;;;;;;;;;5051298;28;20041;-63
2022/08/09 08:47:14;;;;;;;3.00;0.83;;;;;;;;;;5049770;28;20124;-64
2022/08/09 08:49:41;;;;;;;5.00;0.90;;;;;;;;;;5050051;28;20525;-65
2022/08/09 08:52:07;;;;;;;3.07;0.90;;;;;;;;;;5051173;28;20124;-65
2022/08/09 08:54:36;;;;;;;2.87;0.77;;;;;;;;;;5050603;28;20072;-65
2022/08/09 08:57:05;;;;;;;4.80;1.20;;;;;;;;;;5051278;28;20041;-65
2022/08/09 08:59:31;;;;;;;2.60;1.00;;;;;;;;;;5050859;28;20045;-65
2022/08/09 09:01:58;;;;;;;2.93;0.93;;;;;;;;;;5050700;28;20566;-64
2022/08/09 09:04:28;;;;;;;3.57;0.90;;;;;;;;;;5050872;28;20041;-65
2022/08/09 09:06:56;;;;;;;3.10;0.90;;;;;;;;;;5050968;28;20570;-65
2022/08/09 09:09:24;;;;;;;2.20;0.80;;;;;;;;;;5051019;28;20149;-65
2022/08/09 09:11:51;;;;;;;3.23;1.30;;;;;;;;;;5050795;28;20118;-65
2022/08/09 09:14:21;;;;;;;3.50;1.00;;;;;;;;;;5050437;28;20051;-65
2022/08/09 09:16:47;;;;;;;3.23;0.97;;;;;;;;;;5050071;28;20546;-65
2022/08/09 09:19:13;;;;;;;1.30;0.50;;;;;;;;;;5050160;28;20084;-65
2022/08/09 09:21:58;;;;;;;1.57;0.70;;;;;;;;;;5050886;28;20407;-65
2022/08/09 09:24:27;;;;;;;2.40;0.70;;;;;;;;;;5046861;28;20403;-65
2022/08/09 09:26:54;;;;;;;3.28;0.73;;;;;;;;;;5050095;28;20051;-65
2022/08/09 09:29:27;;;;;;;2.83;0.88;;;;;;;;;;5050634;28;20555;-65
2022/08/09 09:31:53;;;;;;;2.45;0.60;;;;;;;;;;5050300;28;20068;-65
2022/08/09 09:34:19;;;;;;;1.77;0.68;;;;;;;;;;5050626;28;20360;-65
2022/08/09 09:36:45;;;;;;;2.80;0.52;;;;;;;;;;5050147;28;20195;-65
2022/08/09 09:39:11;;;;;;;2.00;0.50;;;;;;;;;;5049892;28;20048;-65
2022/08/09 09:41:37;;;;;;;1.65;0.50;;;;;;;;;;5050461;28;20060;-65
2022/08/09 09:44:05;;;;;;;1.88;0.38;;;;;;;;;;5049915;28;20044;-65
2022/08/09 09:46:35;;;;;;;1.17;0.50;;;;;;;;;;5050063;28;20045;-65
2022/08/09 09:49:05;;;;;;;2.92;0.50;;;;;;;;;;5050062;28;20047;-65
2022/08/09 09:51:33;;;;;;;4.65;0.75;;;;;;;;;;5049814;28;20049;-65
2022/08/09 09:54:19;;;;;;;1.42;0.40;;;;;;;;;;5049856;28;20044;-65
2022/08/09 09:56:46;;;;;;;1.70;0.50;;;;;;;;;;5049554;28;20112;-65
2022/08/09 09:59:13;;;;;;;1.42;0.50;;;;;;;;;;5050235;28;20929;-65
2022/08/09 10:01:39;;;;;;;1.00;0.50;;;;;;;;;;5049878;28;20131;-65
2022/08/09 10:04:12;;;;;;;1.80;0.60;;;;;;;;;;5049272;28;20129;-65
2022/08/09 10:06:39;;;;;;;2.10;0.50;;;;;;;;;;5049638;28;20041;-65
2022/08/09 10:09:07;;;;;;;1.40;0.40;;;;;;;;;;5048939;28;20057;-65
2022/08/09 10:11:34;;;;;;;1.42;0.40;;;;;;;;;;5050070;28;20060;-65
2022/08/09 10:14:00;;;;;;;2.17;0.80;;;;;;;;;;5049116;28;20079;-65
2022/08/09 10:16:30;;;;;;;1.42;0.65;;;;;;;;;;5049045;28;20051;-65
2022/08/09 10:19:01;;;;;;;1.98;0.85;;;;;;;;;;5049779;28;20041;-65
2022/08/09 10:21:27;;;;;;;1.33;0.63;;;;;;;;;;5050009;28;20095;-65
2022/08/09 10:23:55;;;;;;;1.83;0.73;;;;;;;;;;5048341;28;20128;-65
2022/08/09 10:26:21;;;;;;;2.05;0.50;;;;;;;;;;5048700;28;20053;-65
2022/08/09 10:28:48;;;;;;;1.85;0.55;;;;;;;;;;5048814;28;20033;-65
2022/08/09 10:31:15;;;;;;;4.28;0.73;;;;;;;;;;5049329;28;20041;-65
2022/08/09 10:33:41;;;;;;;2.35;0.80;;;;;;;;;;5048876;28;20515;-66
2022/08/09 10:36:08;;;;;;;1.70;0.68;;;;;;;;;;5049205;28;20055;-66
2022/08/09 10:38:35;;;;;;;0.80;0.50;;;;;;;;;;5048177;28;20041;-66
2022/08/09 10:41:01;;;;;;;0.90;0.40;;;;;;;;;;5049546;28;20057;-65
2022/08/09 10:43:27;;;;;;;1.70;0.98;;;;;;;;;;5047839;28;20079;-65
2022/08/09 10:45:54;;;;;;;1.02;0.50;;;;;;;;;;5048678;28;20399;-65
2022/08/09 10:48:39;;;;;;;2.40;0.70;;;;;;;;;;5047826;28;20077;-65
2022/08/09 10:51:08;;;;;;;0.85;0.47;;;;;;;;;;5048241;28;20048;-65
2022/08/09 10:53:52;;;;;;;0.98;0.50;;;;;;;;;;5048290;28;20037;-65
2022/08/09 10:56:22;;;;;;;2.05;0.40;;;;;;;;;;5048059;28;20045;-65
2022/08/09 10:58:49;;;;;;;4.10;0.77;;;;;;;;;;5047999;28;20586;-65
2022/08/09 11:01:27;;;;;;;0.85;0.50;;;;;;;;;;5048487;28;20040;-65
2022/08/09 11:04:08;;;;;;;4.63;0.70;;;;;;;;;;5048694;28;20178;-65
2022/08/09 11:06:36;;;;;;;1.52;0.68;;;;;;;;;;5048165;28;20586;-65
2022/08/09 11:09:02;;;;;;;0.95;0.50;;;;;;;;;;5047505;28;20573;-65
2022/08/09 11:11:48;;;;;;;2.55;0.60;;;;;;;;;;5048376;28;20045;-65
2022/08/09 11:14:30;;;;;;;1.52;0.50;;;;;;;;;;5041648;28;20053;-65
2022/08/09 11:16:57;;;;;;;2.10;0.60;;;;;;;;;;5040039;28;20125;-65
2022/08/09 11:19:42;;;;;;;1.67;0.60;;;;;;;;;;5048016;28;20048;-65
2022/08/09 11:22:08;;;;;;;1.75;0.60;;;;;;;;;;5040258;28;20103;-65
2022/08/09 11:25:02;;;;;;;1.35;0.60;;;;;;;;;;5047799;28;20041;-65
2022/08/09 11:27:29;;;;;;;4.47;1.33;;;;;;;;;;5042692;28;20045;-65
2022/08/09 11:29:56;;;;;;;1.17;0.50;;;;;;;;;;5047454;28;21123;-65
2022/08/09 11:32:41;;;;;;;4.63;0.60;;;;;;;;;;5047344;28;20383;-65
2022/08/09 11:35:15;;;;;;;0.40;0.30;;;;;;;;;;5039434;28;20057;-65
2022/08/09 11:37:42;;;;;;;3.28;0.63;;;;;;;;;;5047555;28;20045;-65
2022/08/09 11:40:13;;;;;;;2.35;0.50;;;;;;;;;;5047821;28;20080;-65
2022/08/09 11:42:39;;;;;;;1.38;0.50;;;;;;;;;;5047388;28;20029;-65
2022/08/09 11:45:18;;;;;;;0.43;0.35;;;;;;;;;;5046631;28;20056;-65
2022/08/09 11:47:45;;;;;;;2.08;0.82;;;;;;;;;;5047396;28;20072;-65
2022/08/09 11:50:11;;;;;;;0.90;0.38;;;;;;;;;;5047238;28;20430;-65
2022/08/09 11:52:56;;;;;;;1.55;0.90;;;;;;;;;;5047344;28;20480;-65
2022/08/09 11:55:31;;;;;;;1.27;0.45;;;;;;;;;;5046953;28;20127;-65
2022/08/09 11:58:01;;;;;;;1.33;0.45;;;;;;;;;;5046894;28;20119;-65
2022/08/09 12:00:29;;;;;;;0.63;0.50;;;;;;;;;;5047227;28;20047;-65
2022/08/09 12:02:55;;;;;;;0.40;0.30;;;;;;;;;;5047112;28;20570;-65
2022/08/09 12:05:22;;;;;;;2.25;0.50;;;;;;;;;;5039613;28;20037;-65
2022/08/09 12:07:48;;;;;;;0.90;0.50;;;;;;;;;;5046269;28;20130;-65
2022/08/09 12:10:14;;;;;;;1.48;0.50;;;;;;;;;;5047150;28;20485;-65
2022/08/09 12:12:49;;;;;;;2.53;0.50;;;;;;;;;;5047179;28;20045;-65
2022/08/09 12:15:20;;;;;;;2.40;0.40;;;;;;;;;;5046836;28;20049;-65
2022/08/09 12:17:47;;;;;;;4.25;0.60;;;;;;;;;;5047248;28;20037;-65
2022/08/09 12:20:15;;;;;;;1.95;0.50;;;;;;;;;;5045651;28;20056;-65
2022/08/09 12:22:41;;;;;;;1.08;0.60;;;;;;;;;;5046611;28;21470;-65
2022/08/09 12:25:17;;;;;;;3.50;0.38;;;;;;;;;;5045753;28;20411;-65
2022/08/09 12:27:43;;;;;;;0.98;0.57;;;;;;;;;;5047154;28;20132;-65
2022/08/09 12:30:09;;;;;;;2.85;0.60;;;;;;;;;;5046793;28;20128;-65
2022/08/09 12:32:36;;;;;;;6.38;0.50;;;;;;;;;;5047004;28;20098;-65
2022/08/09 12:35:03;;;;;;;1.00;0.60;;;;;;;;;;5046395;28;20043;-65
2022/08/09 12:37:31;;;;;;;1.77;0.57;;;;;;;;;;5046572;28;20130;-65
2022/08/09 12:40:01;;;;;;;1.05;0.47;;;;;;;;;;5046351;28;20570;-65
2022/08/09 12:42:27;;;;;;;0.60;0.50;;;;;;;;;;5047017;28;20048;-65
2022/08/09 12:44:53;;;;;;;2.30;0.50;;;;;;;;;;5047083;28;20048;-65
2022/08/09 12:47:20;;;;;;;2.78;0.40;;;;;;;;;;5046541;28;20049;-65
2022/08/09 12:52:41;;;;;;;1.23;0.30;;;;;;;;;;5050273;28;20053;-65
2022/08/09 12:55:09;;;;;;;1.60;0.45;;;;;;;;;;5050421;28;20045;-65
2022/08/09 12:57:39;;;;;;;1.33;0.50;;;;;;;;;;5050428;28;20658;-65
2022/08/09 13:00:16;;;;;;;1.10;0.40;;;;;;;;;;5050114;28;20053;-65
2022/08/09 13:02:50;;;;;;;2.80;0.40;;;;;;;;;;5050820;28;20049;-65
2022/08/09 13:05:17;;;;;;;2.67;0.50;;;;;;;;;;5050057;28;20048;-65
2022/08/09 13:08:03;;;;;;;1.42;0.77;;;;;;;;;;5050241;28;20053;-65
2022/08/09 13:10:29;;;;;;;1.52;0.50;;;;;;;;;;5047402;28;20049;-65
2022/08/09 13:12:59;;;;;;;1.13;0.50;;;;;;;;;;5049855;28;20049;-65
2022/08/09 13:15:25;;;;;;;1.20;0.40;;;;;;;;;;5050122;28;20070;-65
2022/08/09 13:17:51;;;;;;;2.05;0.68;;;;;;;;;;5049649;28;20423;-65
2022/08/09 13:20:18;;;;;;;0.90;0.30;;;;;;;;;;5050182;28;20063;-65
2022/08/09 13:22:49;;;;;;;2.80;0.40;;;;;;;;;;5049281;28;20522;-65
2022/08/09 13:25:15;;;;;;;0.88;0.40;;;;;;;;;;5050116;28;20049;-65
2022/08/09 13:27:42;;;;;;;1.92;0.30;;;;;;;;;;5049228;28;20517;-65
2022/08/09 13:30:09;;;;;;;0.68;0.30;;;;;;;;;;5049795;28;20596;-65
2022/08/09 13:32:43;;;;;;;0.95;0.28;;;;;;;;;;5049322;28;20045;-65
2022/08/09 13:35:09;;;;;;;1.80;0.13;;;;;;;;;;5050100;28;20442;-65
2022/08/09 13:37:35;;;;;;;2.05;0.40;;;;;;;;;;5049563;28;20490;-65
2022/08/09 13:40:03;;;;;;;2.08;0.50;;;;;;;;;;5049238;28;20113;-65
2022/08/09 13:42:30;;;;;;;1.70;0.43;;;;;;;;;;5049547;28;20053;-66
2022/08/09 13:44:56;;;;;;;0.98;0.50;;;;;;;;;;5049312;28;20044;-65
2022/08/09 13:47:22;;;;;;;1.52;0.40;;;;;;;;;;5048565;28;20048;-65
2022/08/09 13:49:48;;;;;;;0.70;0.30;;;;;;;;;;5048672;28;20052;-65
2022/08/09 13:52:14;;;;;;;0.77;0.40;;;;;;;;;;5049425;28;20512;-65
2022/08/09 13:54:40;;;;;;;1.55;0.45;;;;;;;;;;5049105;28;20131;-65
2022/08/09 13:57:06;;;;;;;0.90;0.43;;;;;;;;;;5048531;28;20048;-65
2022/08/09 13:59:33;;;;;;;1.00;0.43;;;;;;;;;;5048893;28;20545;-65
2022/08/09 14:01:59;;;;;;;0.90;0.38;;;;;;;;;;5047367;28;20071;-65
2022/08/09 14:04:26;;;;;;;3.38;0.90;;;;;;;;;;5048763;28;20817;-65
2022/08/09 14:06:55;;;;;;;2.40;0.45;;;;;;;;;;5049309;28;20041;-65
2022/08/09 14:09:22;;;;;;;2.92;0.40;;;;;;;;;;5047024;28;20053;-65
2022/08/09 14:11:48;;;;;;;1.38;0.52;;;;;;;;;;5048839;28;20037;-65
2022/08/09 14:14:14;;;;;;;2.53;0.57;;;;;;;;;;5048089;28;20071;-65
2022/08/09 14:16:41;;;;;;;0.65;0.30;;;;;;;;;;5049006;28;20041;-65
2022/08/09 14:19:07;;;;;;;1.83;0.60;;;;;;;;;;5048119;28;20628;-65
2022/08/09 14:21:33;;;;;;;3.47;0.47;;;;;;;;;;5041289;28;20124;-65
2022/08/09 14:23:59;;;;;;;4.07;0.60;;;;;;;;;;5048287;28;20056;-65
2022/08/09 14:26:29;;;;;;;1.45;0.30;;;;;;;;;;5048795;28;20127;-65
2022/08/09 14:28:55;;;;;;;1.75;0.57;;;;;;;;;;5048585;28;20041;-65
2022/08/09 14:31:21;;;;;;;0.55;0.40;;;;;;;;;;5048449;28;20037;-65
2022/08/09 14:33:47;;;;;;;1.05;0.50;;;;;;;;;;5048222;28;20051;-65
2022/08/09 14:36:13;;;;;;;1.08;0.30;;;;;;;;;;5048859;28;20133;-65
2022/08/09 14:38:39;;;;;;;2.88;0.38;;;;;;;;;;5048689;28;20502;-65
2022/08/09 14:41:06;;;;;;;1.23;0.47;;;;;;;;;;5048891;28;20103;-65